sensor_id;sensor_type;location;lat;lon;timestamp;P1;durP1;ratioP1;P2;durP2;ratioP2
71963;SDS011;59834;52.124;5.422;2024-01-07T00:00:53;12.63;;;6.57;;
71963;SDS011;59834;52.124;5.422;2024-01-07T00:03:42;11.13;;;6.40;;
71963;SDS011;59834;52.124;5.422;2024-01-07T00:06:31;12.77;;;6.65;;
71963;SDS011;59834;52.124;5.422;2024-01-07T00:09:20;10.35;;;6.32;;
71963;SDS011;59834;52.124;5.422;2024-01-07T00:11:50;11.40;;;6.37;;
71963;SDS011;59834;52.124;5.422;2024-01-07T00:14:40;9.25;;;5.35;;
71963;SDS011;59834;52.124;5.422;2024-01-07T00:17:14;13.43;;;6.75;;
71963;SDS011;59834;52.124;5.422;2024-01-07T00:20:08;9.50;;;5.18;;
71963;SDS011;59834;52.124;5.422;2024-01-07T00:22:48;14.60;;;5.25;;
71963;SDS011;59834;52.124;5.422;2024-01-07T00:25:45;11.50;;;4.73;;
71963;SDS011;59834;52.124;5.422;2024-01-07T00:28:20;6.72;;;4.60;;
71963;SDS011;59834;52.124;5.422;2024-01-07T00:37:21;8.55;;;4.78;;
71963;SDS011;59834;52.124;5.422;2024-01-07T00:39:55;9.47;;;5.37;;
71963;SDS011;59834;52.124;5.422;2024-01-07T00:46:00;10.05;;;4.97;;
71963;SDS011;59834;52.124;5.422;2024-01-07T00:48:53;10.40;;;4.68;;
71963;SDS011;59834;52.124;5.422;2024-01-07T01:00:27;8.00;;;4.88;;
71963;SDS011;59834;52.124;5.422;2024-01-07T01:03:16;6.75;;;3.92;;
71963;SDS011;59834;52.124;5.422;2024-01-07T01:05:58;9.98;;;5.43;;
71963;SDS011;59834;52.124;5.422;2024-01-07T01:09:06;8.63;;;5.53;;
71963;SDS011;59834;52.124;5.422;2024-01-07T01:11:35;7.83;;;4.53;;
71963;SDS011;59834;52.124;5.422;2024-01-07T01:14:10;5.57;;;3.03;;
71963;SDS011;59834;52.124;5.422;2024-01-07T01:16:57;10.65;;;5.82;;
71963;SDS011;59834;52.124;5.422;2024-01-07T01:23:35;15.50;;;6.30;;
71963;SDS011;59834;52.124;5.422;2024-01-07T01:30:43;10.50;;;5.65;;
71963;SDS011;59834;52.124;5.422;2024-01-07T01:36:53;11.05;;;3.05;;
71963;SDS011;59834;52.124;5.422;2024-01-07T01:40:09;9.38;;;6.20;;
71963;SDS011;59834;52.124;5.422;2024-01-07T01:42:46;10.13;;;6.30;;
71963;SDS011;59834;52.124;5.422;2024-01-07T01:55:56;11.85;;;5.70;;
71963;SDS011;59834;52.124;5.422;2024-01-07T01:58:49;13.40;;;7.77;;
71963;SDS011;59834;52.124;5.422;2024-01-07T02:01:51;10.52;;;5.63;;
71963;SDS011;59834;52.124;5.422;2024-01-07T02:08:17;15.88;;;7.00;;
71963;SDS011;59834;52.124;5.422;2024-01-07T02:15:31;12.40;;;6.33;;
71963;SDS011;59834;52.124;5.422;2024-01-07T02:22:11;11.85;;;5.00;;
71963;SDS011;59834;52.124;5.422;2024-01-07T02:27:44;15.00;;;7.75;;
71963;SDS011;59834;52.124;5.422;2024-01-07T02:30:16;13.43;;;7.17;;
71963;SDS011;59834;52.124;5.422;2024-01-07T02:33:02;15.00;;;7.15;;
71963;SDS011;59834;52.124;5.422;2024-01-07T02:35:50;16.40;;;8.35;;
71963;SDS011;59834;52.124;5.422;2024-01-07T02:43:14;14.32;;;7.47;;
71963;SDS011;59834;52.124;5.422;2024-01-07T02:46:02;13.33;;;6.20;;
71963;SDS011;59834;52.124;5.422;2024-01-07T02:49:07;11.50;;;7.07;;
71963;SDS011;59834;52.124;5.422;2024-01-07T02:56:07;5.90;;;3.63;;
71963;SDS011;59834;52.124;5.422;2024-01-07T03:10:47;9.90;;;4.97;;
71963;SDS011;59834;52.124;5.422;2024-01-07T03:13:23;11.32;;;6.88;;
71963;SDS011;59834;52.124;5.422;2024-01-07T03:16:34;9.20;;;5.25;;
71963;SDS011;59834;52.124;5.422;2024-01-07T03:19:03;7.33;;;4.47;;
71963;SDS011;59834;52.124;5.422;2024-01-07T03:21:31;13.13;;;5.50;;
71963;SDS011;59834;52.124;5.422;2024-01-07T03:24:00;11.57;;;6.32;;
71963;SDS011;59834;52.124;5.422;2024-01-07T03:26:29;8.18;;;4.05;;
71963;SDS011;59834;52.124;5.422;2024-01-07T03:28:58;10.98;;;6.55;;
71963;SDS011;59834;52.124;5.422;2024-01-07T03:31:28;14.43;;;8.80;;
71963;SDS011;59834;52.124;5.422;2024-01-07T03:34:02;14.88;;;7.60;;
71963;SDS011;59834;52.124;5.422;2024-01-07T03:36:37;11.32;;;5.93;;
71963;SDS011;59834;52.124;5.422;2024-01-07T03:39:19;11.45;;;6.88;;
71963;SDS011;59834;52.124;5.422;2024-01-07T03:45:52;10.83;;;4.17;;
71963;SDS011;59834;52.124;5.422;2024-01-07T03:48:56;9.93;;;5.18;;
71963;SDS011;59834;52.124;5.422;2024-01-07T03:54:29;10.07;;;5.07;;
71963;SDS011;59834;52.124;5.422;2024-01-07T03:56:58;7.70;;;5.60;;
71963;SDS011;59834;52.124;5.422;2024-01-07T03:59:46;11.17;;;6.77;;
71963;SDS011;59834;52.124;5.422;2024-01-07T04:05:32;15.45;;;6.60;;
71963;SDS011;59834;52.124;5.422;2024-01-07T04:08:01;13.77;;;5.78;;
71963;SDS011;59834;52.124;5.422;2024-01-07T04:10:33;9.30;;;4.97;;
71963;SDS011;59834;52.124;5.422;2024-01-07T04:16:52;19.50;;;8.63;;
71963;SDS011;59834;52.124;5.422;2024-01-07T04:19:27;19.42;;;6.97;;
71963;SDS011;59834;52.124;5.422;2024-01-07T04:21:56;14.73;;;7.28;;
71963;SDS011;59834;52.124;5.422;2024-01-07T04:24:31;11.02;;;7.25;;
71963;SDS011;59834;52.124;5.422;2024-01-07T04:26:58;14.53;;;5.47;;
71963;SDS011;59834;52.124;5.422;2024-01-07T04:29:25;14.77;;;8.45;;
71963;SDS011;59834;52.124;5.422;2024-01-07T04:32:16;17.85;;;7.93;;
71963;SDS011;59834;52.124;5.422;2024-01-07T04:35:03;12.77;;;6.35;;
71963;SDS011;59834;52.124;5.422;2024-01-07T04:37:37;18.85;;;9.52;;
71963;SDS011;59834;52.124;5.422;2024-01-07T04:40:06;13.33;;;7.93;;
71963;SDS011;59834;52.124;5.422;2024-01-07T04:42:34;17.52;;;8.52;;
71963;SDS011;59834;52.124;5.422;2024-01-07T04:45:14;13.80;;;6.88;;
71963;SDS011;59834;52.124;5.422;2024-01-07T04:47:47;13.63;;;6.35;;
71963;SDS011;59834;52.124;5.422;2024-01-07T04:50:14;18.05;;;8.63;;
71963;SDS011;59834;52.124;5.422;2024-01-07T04:56:40;9.63;;;6.07;;
71963;SDS011;59834;52.124;5.422;2024-01-07T04:59:38;15.93;;;7.57;;
71963;SDS011;59834;52.124;5.422;2024-01-07T05:03:06;9.60;;;5.75;;
71963;SDS011;59834;52.124;5.422;2024-01-07T05:05:34;12.20;;;6.82;;
71963;SDS011;59834;52.124;5.422;2024-01-07T05:08:35;14.60;;;5.33;;
71963;SDS011;59834;52.124;5.422;2024-01-07T05:11:06;11.02;;;6.72;;
71963;SDS011;59834;52.124;5.422;2024-01-07T05:13:33;12.68;;;4.28;;
71963;SDS011;59834;52.124;5.422;2024-01-07T05:16:04;5.63;;;3.70;;
71963;SDS011;59834;52.124;5.422;2024-01-07T05:18:46;10.45;;;5.78;;
71963;SDS011;59834;52.124;5.422;2024-01-07T05:21:17;13.40;;;6.60;;
71963;SDS011;59834;52.124;5.422;2024-01-07T05:23:47;10.23;;;6.38;;
71963;SDS011;59834;52.124;5.422;2024-01-07T05:26:17;12.73;;;7.38;;
71963;SDS011;59834;52.124;5.422;2024-01-07T05:28:50;9.80;;;6.20;;
71963;SDS011;59834;52.124;5.422;2024-01-07T05:31:21;13.50;;;6.63;;
71963;SDS011;59834;52.124;5.422;2024-01-07T05:34:01;9.40;;;6.33;;
71963;SDS011;59834;52.124;5.422;2024-01-07T05:36:29;11.52;;;6.43;;
71963;SDS011;59834;52.124;5.422;2024-01-07T05:39:07;10.80;;;7.15;;
71963;SDS011;59834;52.124;5.422;2024-01-07T05:41:51;12.98;;;6.45;;
71963;SDS011;59834;52.124;5.422;2024-01-07T05:44:31;10.45;;;5.43;;
71963;SDS011;59834;52.124;5.422;2024-01-07T05:47:22;12.00;;;5.93;;
71963;SDS011;59834;52.124;5.422;2024-01-07T05:49:56;10.23;;;5.30;;
71963;SDS011;59834;52.124;5.422;2024-01-07T05:52:23;10.57;;;6.20;;
71963;SDS011;59834;52.124;5.422;2024-01-07T05:55:28;7.93;;;3.05;;
71963;SDS011;59834;52.124;5.422;2024-01-07T05:57:57;12.00;;;6.03;;
71963;SDS011;59834;52.124;5.422;2024-01-07T06:00:24;9.63;;;6.17;;
71963;SDS011;59834;52.124;5.422;2024-01-07T06:06:36;10.10;;;5.55;;
71963;SDS011;59834;52.124;5.422;2024-01-07T06:09:14;10.23;;;5.68;;
71963;SDS011;59834;52.124;5.422;2024-01-07T06:11:50;8.63;;;5.72;;
71963;SDS011;59834;52.124;5.422;2024-01-07T06:14:18;8.30;;;5.63;;
71963;SDS011;59834;52.124;5.422;2024-01-07T06:16:47;8.95;;;6.32;;
71963;SDS011;59834;52.124;5.422;2024-01-07T06:19:25;5.32;;;4.32;;
71963;SDS011;59834;52.124;5.422;2024-01-07T06:22:06;12.82;;;5.47;;
71963;SDS011;59834;52.124;5.422;2024-01-07T06:24:33;12.40;;;6.60;;
71963;SDS011;59834;52.124;5.422;2024-01-07T06:27:05;8.40;;;5.17;;
71963;SDS011;59834;52.124;5.422;2024-01-07T06:29:46;8.13;;;4.80;;
71963;SDS011;59834;52.124;5.422;2024-01-07T06:36:22;4.47;;;2.90;;
71963;SDS011;59834;52.124;5.422;2024-01-07T06:39:27;8.60;;;5.90;;
71963;SDS011;59834;52.124;5.422;2024-01-07T06:42:30;8.57;;;4.70;;
71963;SDS011;59834;52.124;5.422;2024-01-07T06:48:51;10.57;;;6.15;;
71963;SDS011;59834;52.124;5.422;2024-01-07T06:51:32;3.80;;;2.50;;
71963;SDS011;59834;52.124;5.422;2024-01-07T06:54:20;9.40;;;6.03;;
71963;SDS011;59834;52.124;5.422;2024-01-07T06:57:08;10.97;;;5.17;;
71963;SDS011;59834;52.124;5.422;2024-01-07T06:59:53;5.53;;;3.55;;
71963;SDS011;59834;52.124;5.422;2024-01-07T07:02:32;6.03;;;4.28;;
71963;SDS011;59834;52.124;5.422;2024-01-07T07:23:15;8.60;;;6.03;;
71963;SDS011;59834;52.124;5.422;2024-01-07T07:26:08;8.63;;;5.80;;
71963;SDS011;59834;52.124;5.422;2024-01-07T07:28:48;9.70;;;6.30;;
71963;SDS011;59834;52.124;5.422;2024-01-07T07:31:36;4.07;;;3.22;;
71963;SDS011;59834;52.124;5.422;2024-01-07T07:44:33;8.57;;;4.87;;
71963;SDS011;59834;52.124;5.422;2024-01-07T07:47:48;6.50;;;3.40;;
71963;SDS011;59834;52.124;5.422;2024-01-07T07:50:17;9.57;;;5.88;;
71963;SDS011;59834;52.124;5.422;2024-01-07T07:52:49;10.38;;;5.97;;
71963;SDS011;59834;52.124;5.422;2024-01-07T08:06:55;5.63;;;2.78;;
71963;SDS011;59834;52.124;5.422;2024-01-07T08:09:28;9.43;;;4.32;;
71963;SDS011;59834;52.124;5.422;2024-01-07T08:23:33;8.68;;;4.90;;
71963;SDS011;59834;52.124;5.422;2024-01-07T08:25:59;12.18;;;5.28;;
71963;SDS011;59834;52.124;5.422;2024-01-07T08:31:18;4.93;;;3.50;;
71963;SDS011;59834;52.124;5.422;2024-01-07T08:33:45;8.75;;;4.72;;
71963;SDS011;59834;52.124;5.422;2024-01-07T08:36:19;5.82;;;4.00;;
71963;SDS011;59834;52.124;5.422;2024-01-07T08:38:46;5.20;;;3.40;;
71963;SDS011;59834;52.124;5.422;2024-01-07T08:41:30;10.50;;;4.03;;
71963;SDS011;59834;52.124;5.422;2024-01-07T08:50:43;4.05;;;3.00;;
71963;SDS011;59834;52.124;5.422;2024-01-07T08:53:24;7.05;;;3.10;;
71963;SDS011;59834;52.124;5.422;2024-01-07T08:55:50;5.97;;;5.00;;
71963;SDS011;59834;52.124;5.422;2024-01-07T09:00:58;8.05;;;3.92;;
71963;SDS011;59834;52.124;5.422;2024-01-07T09:03:26;8.60;;;3.55;;
71963;SDS011;59834;52.124;5.422;2024-01-07T09:05:55;3.95;;;2.28;;
71963;SDS011;59834;52.124;5.422;2024-01-07T09:08:22;3.90;;;2.28;;
71963;SDS011;59834;52.124;5.422;2024-01-07T09:10:48;9.60;;;3.43;;
71963;SDS011;59834;52.124;5.422;2024-01-07T09:13:15;7.97;;;2.80;;
71963;SDS011;59834;52.124;5.422;2024-01-07T09:15:42;7.85;;;3.55;;
71963;SDS011;59834;52.124;5.422;2024-01-07T09:18:09;10.90;;;3.92;;
71963;SDS011;59834;52.124;5.422;2024-01-07T09:20:36;4.78;;;3.03;;
71963;SDS011;59834;52.124;5.422;2024-01-07T09:23:02;3.50;;;3.20;;
71963;SDS011;59834;52.124;5.422;2024-01-07T09:25:31;7.03;;;4.20;;
71963;SDS011;59834;52.124;5.422;2024-01-07T09:27:58;4.88;;;2.92;;
71963;SDS011;59834;52.124;5.422;2024-01-07T09:30:25;9.13;;;4.35;;
71963;SDS011;59834;52.124;5.422;2024-01-07T09:32:52;9.27;;;3.65;;
71963;SDS011;59834;52.124;5.422;2024-01-07T09:35:19;7.83;;;3.90;;
71963;SDS011;59834;52.124;5.422;2024-01-07T09:37:50;7.72;;;4.32;;
71963;SDS011;59834;52.124;5.422;2024-01-07T09:40:19;8.50;;;3.47;;
71963;SDS011;59834;52.124;5.422;2024-01-07T09:42:46;5.40;;;3.35;;
71963;SDS011;59834;52.124;5.422;2024-01-07T09:45:22;5.88;;;4.35;;
71963;SDS011;59834;52.124;5.422;2024-01-07T09:47:51;8.80;;;4.00;;
71963;SDS011;59834;52.124;5.422;2024-01-07T09:50:20;5.97;;;2.67;;
71963;SDS011;59834;52.124;5.422;2024-01-07T09:52:48;4.57;;;2.47;;
71963;SDS011;59834;52.124;5.422;2024-01-07T09:55:30;4.63;;;2.20;;
71963;SDS011;59834;52.124;5.422;2024-01-07T09:58:00;5.43;;;2.67;;
71963;SDS011;59834;52.124;5.422;2024-01-07T10:00:27;6.00;;;2.40;;
71963;SDS011;59834;52.124;5.422;2024-01-07T10:02:54;5.22;;;2.47;;
71963;SDS011;59834;52.124;5.422;2024-01-07T10:09:05;4.93;;;2.42;;
71963;SDS011;59834;52.124;5.422;2024-01-07T10:11:35;4.57;;;2.22;;
71963;SDS011;59834;52.124;5.422;2024-01-07T10:14:02;6.27;;;1.70;;
71963;SDS011;59834;52.124;5.422;2024-01-07T10:16:29;3.33;;;1.48;;
71963;SDS011;59834;52.124;5.422;2024-01-07T10:18:55;3.42;;;0.93;;
71963;SDS011;59834;52.124;5.422;2024-01-07T10:28:56;2.63;;;1.40;;
71963;SDS011;59834;52.124;5.422;2024-01-07T10:35:03;2.92;;;1.88;;
71963;SDS011;59834;52.124;5.422;2024-01-07T10:40:40;4.10;;;1.30;;
71963;SDS011;59834;52.124;5.422;2024-01-07T10:43:16;2.10;;;1.07;;
71963;SDS011;59834;52.124;5.422;2024-01-07T10:45:51;3.50;;;1.92;;
71963;SDS011;59834;52.124;5.422;2024-01-07T10:48:32;3.20;;;1.30;;
71963;SDS011;59834;52.124;5.422;2024-01-07T10:51:04;2.17;;;0.90;;
71963;SDS011;59834;52.124;5.422;2024-01-07T10:53:34;4.22;;;1.30;;
71963;SDS011;59834;52.124;5.422;2024-01-07T10:56:08;2.33;;;1.30;;
71963;SDS011;59834;52.124;5.422;2024-01-07T10:58:40;3.75;;;1.05;;
71963;SDS011;59834;52.124;5.422;2024-01-07T11:04:22;2.05;;;0.73;;
71963;SDS011;59834;52.124;5.422;2024-01-07T11:10:24;2.13;;;0.87;;
71963;SDS011;59834;52.124;5.422;2024-01-07T11:13:07;2.42;;;0.50;;
71963;SDS011;59834;52.124;5.422;2024-01-07T11:28:47;2.80;;;0.90;;
71963;SDS011;59834;52.124;5.422;2024-01-07T11:31:20;1.70;;;0.40;;
71963;SDS011;59834;52.124;5.422;2024-01-07T11:33:49;3.20;;;0.73;;
71963;SDS011;59834;52.124;5.422;2024-01-07T11:36:17;0.75;;;0.20;;
71963;SDS011;59834;52.124;5.422;2024-01-07T11:38:49;2.00;;;0.40;;
71963;SDS011;59834;52.124;5.422;2024-01-07T11:41:20;1.63;;;0.55;;
71963;SDS011;59834;52.124;5.422;2024-01-07T11:46:22;1.77;;;0.50;;
71963;SDS011;59834;52.124;5.422;2024-01-07T11:48:53;3.15;;;0.55;;
71963;SDS011;59834;52.124;5.422;2024-01-07T11:51:29;1.90;;;0.47;;
71963;SDS011;59834;52.124;5.422;2024-01-07T11:53:58;1.80;;;0.70;;
71963;SDS011;59834;52.124;5.422;2024-01-07T11:56:26;1.13;;;0.40;;
71963;SDS011;59834;52.124;5.422;2024-01-07T11:58:54;1.30;;;0.30;;
71963;SDS011;59834;52.124;5.422;2024-01-07T12:01:23;0.98;;;0.32;;
71963;SDS011;59834;52.124;5.422;2024-01-07T12:11:00;3.15;;;0.43;;
71963;SDS011;59834;52.124;5.422;2024-01-07T12:15:04;3.05;;;0.30;;
71963;SDS011;59834;52.124;5.422;2024-01-07T12:44:17;0.50;;;0.10;;
71963;SDS011;59834;52.124;5.422;2024-01-07T12:50:35;3.03;;;0.30;;
71963;SDS011;59834;52.124;5.422;2024-01-07T12:56:13;0.67;;;0.20;;
71963;SDS011;59834;52.124;5.422;2024-01-07T13:02:32;0.35;;;0.10;;
71963;SDS011;59834;52.124;5.422;2024-01-07T13:04:59;0.45;;;0.10;;
71963;SDS011;59834;52.124;5.422;2024-01-07T13:15:26;1.20;;;0.65;;
71963;SDS011;59834;52.124;5.422;2024-01-07T13:21:27;1.77;;;0.30;;
71963;SDS011;59834;52.124;5.422;2024-01-07T13:23:54;0.50;;;0.10;;
71963;SDS011;59834;52.124;5.422;2024-01-07T13:26:21;0.63;;;0.17;;
71963;SDS011;59834;52.124;5.422;2024-01-07T13:28:48;0.52;;;0.10;;
71963;SDS011;59834;52.124;5.422;2024-01-07T13:31:16;2.38;;;0.45;;
71963;SDS011;59834;52.124;5.422;2024-01-07T13:33:42;0.60;;;0.17;;
71963;SDS011;59834;52.124;5.422;2024-01-07T13:36:09;1.33;;;0.27;;
71963;SDS011;59834;52.124;5.422;2024-01-07T13:38:38;2.58;;;0.40;;
71963;SDS011;59834;52.124;5.422;2024-01-07T13:41:09;3.63;;;0.35;;
71963;SDS011;59834;52.124;5.422;2024-01-07T13:43:37;4.53;;;0.20;;
71963;SDS011;59834;52.124;5.422;2024-01-07T13:46:09;0.45;;;0.10;;
71963;SDS011;59834;52.124;5.422;2024-01-07T13:48:36;0.87;;;0.13;;
71963;SDS011;59834;52.124;5.422;2024-01-07T13:51:05;0.95;;;0.47;;
71963;SDS011;59834;52.124;5.422;2024-01-07T13:53:36;0.57;;;0.20;;
71963;SDS011;59834;52.124;5.422;2024-01-07T13:56:02;0.40;;;0.10;;
71963;SDS011;59834;52.124;5.422;2024-01-07T13:58:30;0.70;;;0.20;;
71963;SDS011;59834;52.124;5.422;2024-01-07T14:00:56;3.37;;;1.27;;
71963;SDS011;59834;52.124;5.422;2024-01-07T14:03:26;2.15;;;0.30;;
71963;SDS011;59834;52.124;5.422;2024-01-07T14:05:53;3.28;;;0.10;;
71963;SDS011;59834;52.124;5.422;2024-01-07T14:08:20;3.25;;;0.10;;
71963;SDS011;59834;52.124;5.422;2024-01-07T14:10:47;0.38;;;0.03;;
71963;SDS011;59834;52.124;5.422;2024-01-07T14:13:17;0.30;;;0.10;;
71963;SDS011;59834;52.124;5.422;2024-01-07T14:15:45;0.82;;;0.15;;
71963;SDS011;59834;52.124;5.422;2024-01-07T14:18:12;1.63;;;0.30;;
71963;SDS011;59834;52.124;5.422;2024-01-07T14:20:42;0.70;;;0.40;;
71963;SDS011;59834;52.124;5.422;2024-01-07T14:23:12;1.92;;;0.20;;
71963;SDS011;59834;52.124;5.422;2024-01-07T14:25:39;0.30;;;0.10;;
71963;SDS011;59834;52.124;5.422;2024-01-07T14:28:06;0.65;;;0.35;;
71963;SDS011;59834;52.124;5.422;2024-01-07T14:30:34;0.45;;;0.10;;
71963;SDS011;59834;52.124;5.422;2024-01-07T14:33:04;0.82;;;0.10;;
71963;SDS011;59834;52.124;5.422;2024-01-07T14:35:34;1.10;;;0.30;;
71963;SDS011;59834;52.124;5.422;2024-01-07T14:38:04;0.50;;;0.10;;
71963;SDS011;59834;52.124;5.422;2024-01-07T14:40:35;0.93;;;0.10;;
71963;SDS011;59834;52.124;5.422;2024-01-07T14:43:02;2.08;;;1.02;;
71963;SDS011;59834;52.124;5.422;2024-01-07T14:45:29;0.50;;;0.20;;
71963;SDS011;59834;52.124;5.422;2024-01-07T14:47:55;3.90;;;0.30;;
71963;SDS011;59834;52.124;5.422;2024-01-07T14:50:22;1.13;;;0.40;;
71963;SDS011;59834;52.124;5.422;2024-01-07T14:52:59;0.70;;;0.20;;
71963;SDS011;59834;52.124;5.422;2024-01-07T14:55:25;1.20;;;0.40;;
71963;SDS011;59834;52.124;5.422;2024-01-07T14:57:52;0.90;;;0.20;;
71963;SDS011;59834;52.124;5.422;2024-01-07T15:00:21;1.42;;;0.47;;
71963;SDS011;59834;52.124;5.422;2024-01-07T15:02:47;0.83;;;0.20;;
71963;SDS011;59834;52.124;5.422;2024-01-07T15:05:14;2.65;;;0.20;;
71963;SDS011;59834;52.124;5.422;2024-01-07T15:07:41;4.05;;;0.20;;
71963;SDS011;59834;52.124;5.422;2024-01-07T15:10:10;0.82;;;0.20;;
71963;SDS011;59834;52.124;5.422;2024-01-07T15:12:37;3.75;;;0.63;;
71963;SDS011;59834;52.124;5.422;2024-01-07T15:15:12;1.17;;;0.27;;
71963;SDS011;59834;52.124;5.422;2024-01-07T15:17:39;0.28;;;0.10;;
71963;SDS011;59834;52.124;5.422;2024-01-07T15:20:08;2.85;;;0.40;;
71963;SDS011;59834;52.124;5.422;2024-01-07T15:22:37;3.13;;;0.35;;
71963;SDS011;59834;52.124;5.422;2024-01-07T15:25:05;1.15;;;0.22;;
71963;SDS011;59834;52.124;5.422;2024-01-07T15:27:33;4.90;;;0.40;;
71963;SDS011;59834;52.124;5.422;2024-01-07T15:30:00;3.97;;;0.65;;
71963;SDS011;59834;52.124;5.422;2024-01-07T15:32:33;0.77;;;0.20;;
71963;SDS011;59834;52.124;5.422;2024-01-07T15:35:00;1.92;;;0.30;;
71963;SDS011;59834;52.124;5.422;2024-01-07T15:37:26;1.65;;;0.55;;
71963;SDS011;59834;52.124;5.422;2024-01-07T15:39:53;3.57;;;0.93;;
71963;SDS011;59834;52.124;5.422;2024-01-07T15:42:21;3.80;;;0.38;;
71963;SDS011;59834;52.124;5.422;2024-01-07T15:44:47;1.10;;;0.32;;
71963;SDS011;59834;52.124;5.422;2024-01-07T15:47:14;1.52;;;0.38;;
71963;SDS011;59834;52.124;5.422;2024-01-07T15:49:40;2.65;;;0.47;;
71963;SDS011;59834;52.124;5.422;2024-01-07T15:52:07;1.60;;;0.50;;
71963;SDS011;59834;52.124;5.422;2024-01-07T15:54:34;1.27;;;0.40;;
71963;SDS011;59834;52.124;5.422;2024-01-07T15:57:00;1.70;;;0.40;;
71963;SDS011;59834;52.124;5.422;2024-01-07T15:59:28;2.97;;;0.20;;
71963;SDS011;59834;52.124;5.422;2024-01-07T16:01:55;1.90;;;0.60;;
71963;SDS011;59834;52.124;5.422;2024-01-07T16:04:21;1.23;;;0.40;;
71963;SDS011;59834;52.124;5.422;2024-01-07T16:06:50;1.05;;;0.28;;
71963;SDS011;59834;52.124;5.422;2024-01-07T16:09:17;1.58;;;0.40;;
71963;SDS011;59834;52.124;5.422;2024-01-07T16:11:44;2.08;;;0.38;;
71963;SDS011;59834;52.124;5.422;2024-01-07T16:14:12;2.95;;;0.65;;
71963;SDS011;59834;52.124;5.422;2024-01-07T16:16:43;3.93;;;0.50;;
71963;SDS011;59834;52.124;5.422;2024-01-07T16:19:11;2.67;;;0.47;;
71963;SDS011;59834;52.124;5.422;2024-01-07T16:21:38;3.95;;;0.52;;
71963;SDS011;59834;52.124;5.422;2024-01-07T16:24:07;2.22;;;0.60;;
71963;SDS011;59834;52.124;5.422;2024-01-07T16:26:33;4.70;;;0.85;;
71963;SDS011;59834;52.124;5.422;2024-01-07T16:29:01;4.33;;;0.60;;
71963;SDS011;59834;52.124;5.422;2024-01-07T16:31:28;6.90;;;0.40;;
71963;SDS011;59834;52.124;5.422;2024-01-07T16:33:55;4.03;;;0.88;;
71963;SDS011;59834;52.124;5.422;2024-01-07T16:36:22;2.30;;;0.40;;
71963;SDS011;59834;52.124;5.422;2024-01-07T16:38:49;1.50;;;0.50;;
71963;SDS011;59834;52.124;5.422;2024-01-07T16:41:15;1.67;;;0.60;;
71963;SDS011;59834;52.124;5.422;2024-01-07T16:43:43;1.98;;;0.73;;
71963;SDS011;59834;52.124;5.422;2024-01-07T16:46:12;2.75;;;0.73;;
71963;SDS011;59834;52.124;5.422;2024-01-07T16:48:41;2.00;;;0.68;;
71963;SDS011;59834;52.124;5.422;2024-01-07T16:51:28;4.82;;;1.02;;
71963;SDS011;59834;52.124;5.422;2024-01-07T16:53:55;2.97;;;0.60;;
71963;SDS011;59834;52.124;5.422;2024-01-07T16:56:22;2.80;;;0.52;;
71963;SDS011;59834;52.124;5.422;2024-01-07T16:58:49;4.53;;;0.93;;
71963;SDS011;59834;52.124;5.422;2024-01-07T17:01:16;2.25;;;1.00;;
71963;SDS011;59834;52.124;5.422;2024-01-07T17:03:43;4.53;;;1.05;;
71963;SDS011;59834;52.124;5.422;2024-01-07T17:06:10;3.20;;;1.10;;
71963;SDS011;59834;52.124;5.422;2024-01-07T17:08:37;4.90;;;1.10;;
71963;SDS011;59834;52.124;5.422;2024-01-07T17:11:04;8.70;;;1.73;;
71963;SDS011;59834;52.124;5.422;2024-01-07T17:13:31;2.22;;;0.82;;
71963;SDS011;59834;52.124;5.422;2024-01-07T17:15:58;4.38;;;1.85;;
71963;SDS011;59834;52.124;5.422;2024-01-07T17:18:24;1.50;;;0.53;;
71963;SDS011;59834;52.124;5.422;2024-01-07T17:20:51;3.13;;;1.30;;
71963;SDS011;59834;52.124;5.422;2024-01-07T17:23:18;2.53;;;1.23;;
71963;SDS011;59834;52.124;5.422;2024-01-07T17:25:48;2.50;;;0.95;;
71963;SDS011;59834;52.124;5.422;2024-01-07T17:28:15;2.63;;;0.90;;
71963;SDS011;59834;52.124;5.422;2024-01-07T17:30:43;3.03;;;1.00;;
71963;SDS011;59834;52.124;5.422;2024-01-07T17:33:09;3.95;;;1.58;;
71963;SDS011;59834;52.124;5.422;2024-01-07T17:35:37;2.60;;;1.50;;
71963;SDS011;59834;52.124;5.422;2024-01-07T17:38:05;5.68;;;1.35;;
71963;SDS011;59834;52.124;5.422;2024-01-07T17:40:32;3.10;;;1.25;;
71963;SDS011;59834;52.124;5.422;2024-01-07T17:42:58;1.17;;;0.50;;
71963;SDS011;59834;52.124;5.422;2024-01-07T17:45:26;4.22;;;1.73;;
71963;SDS011;59834;52.124;5.422;2024-01-07T17:47:54;5.72;;;1.23;;
71963;SDS011;59834;52.124;5.422;2024-01-07T17:50:21;4.53;;;0.63;;
71963;SDS011;59834;52.124;5.422;2024-01-07T17:52:48;6.65;;;1.48;;
71963;SDS011;59834;52.124;5.422;2024-01-07T17:55:16;5.10;;;1.87;;
71963;SDS011;59834;52.124;5.422;2024-01-07T17:57:45;3.38;;;1.73;;
71963;SDS011;59834;52.124;5.422;2024-01-07T18:00:13;4.55;;;2.22;;
71963;SDS011;59834;52.124;5.422;2024-01-07T18:02:40;3.92;;;1.55;;
71963;SDS011;59834;52.124;5.422;2024-01-07T18:05:08;4.82;;;1.70;;
71963;SDS011;59834;52.124;5.422;2024-01-07T18:07:35;4.30;;;1.50;;
71963;SDS011;59834;52.124;5.422;2024-01-07T18:10:02;2.97;;;1.50;;
71963;SDS011;59834;52.124;5.422;2024-01-07T18:12:30;5.72;;;2.42;;
71963;SDS011;59834;52.124;5.422;2024-01-07T18:14:56;9.15;;;2.53;;
71963;SDS011;59834;52.124;5.422;2024-01-07T18:17:24;11.65;;;3.08;;
71963;SDS011;59834;52.124;5.422;2024-01-07T18:19:50;7.30;;;1.73;;
71963;SDS011;59834;52.124;5.422;2024-01-07T18:22:17;5.72;;;1.90;;
71963;SDS011;59834;52.124;5.422;2024-01-07T18:24:44;5.63;;;2.67;;
71963;SDS011;59834;52.124;5.422;2024-01-07T18:27:10;8.40;;;1.95;;
71963;SDS011;59834;52.124;5.422;2024-01-07T18:29:38;6.22;;;2.63;;
71963;SDS011;59834;52.124;5.422;2024-01-07T18:32:05;5.37;;;2.63;;
71963;SDS011;59834;52.124;5.422;2024-01-07T18:34:34;4.47;;;1.65;;
71963;SDS011;59834;52.124;5.422;2024-01-07T18:37:04;5.47;;;1.80;;
71963;SDS011;59834;52.124;5.422;2024-01-07T18:39:31;3.72;;;2.15;;
71963;SDS011;59834;52.124;5.422;2024-01-07T18:41:57;6.78;;;2.22;;
71963;SDS011;59834;52.124;5.422;2024-01-07T18:44:24;4.10;;;1.83;;
71963;SDS011;59834;52.124;5.422;2024-01-07T18:46:52;4.53;;;1.63;;
71963;SDS011;59834;52.124;5.422;2024-01-07T18:49:19;4.75;;;2.00;;
71963;SDS011;59834;52.124;5.422;2024-01-07T18:51:46;4.57;;;2.30;;
71963;SDS011;59834;52.124;5.422;2024-01-07T18:54:13;4.03;;;1.20;;
71963;SDS011;59834;52.124;5.422;2024-01-07T18:56:40;5.83;;;2.13;;
71963;SDS011;59834;52.124;5.422;2024-01-07T18:59:06;4.03;;;1.08;;
71963;SDS011;59834;52.124;5.422;2024-01-07T19:01:33;4.45;;;1.45;;
71963;SDS011;59834;52.124;5.422;2024-01-07T19:04:00;6.55;;;1.75;;
71963;SDS011;59834;52.124;5.422;2024-01-07T19:06:27;12.10;;;2.85;;
71963;SDS011;59834;52.124;5.422;2024-01-07T19:08:54;4.27;;;1.33;;
71963;SDS011;59834;52.124;5.422;2024-01-07T19:11:21;3.72;;;1.70;;
71963;SDS011;59834;52.124;5.422;2024-01-07T19:13:48;6.47;;;2.53;;
71963;SDS011;59834;52.124;5.422;2024-01-07T19:16:15;6.13;;;2.22;;
71963;SDS011;59834;52.124;5.422;2024-01-07T19:18:42;6.10;;;2.92;;
71963;SDS011;59834;52.124;5.422;2024-01-07T19:21:15;6.73;;;2.90;;
71963;SDS011;59834;52.124;5.422;2024-01-07T19:23:42;4.95;;;1.55;;
71963;SDS011;59834;52.124;5.422;2024-01-07T19:26:10;4.53;;;2.55;;
71963;SDS011;59834;52.124;5.422;2024-01-07T19:28:37;6.78;;;2.33;;
71963;SDS011;59834;52.124;5.422;2024-01-07T19:31:04;4.60;;;1.40;;
71963;SDS011;59834;52.124;5.422;2024-01-07T19:33:36;3.77;;;1.70;;
71963;SDS011;59834;52.124;5.422;2024-01-07T19:36:09;5.22;;;0.85;;
71963;SDS011;59834;52.124;5.422;2024-01-07T19:38:36;2.90;;;0.88;;
71963;SDS011;59834;52.124;5.422;2024-01-07T19:41:03;5.28;;;1.95;;
71963;SDS011;59834;52.124;5.422;2024-01-07T19:43:31;3.83;;;1.83;;
71963;SDS011;59834;52.124;5.422;2024-01-07T19:45:58;5.13;;;1.70;;